createdAt,value
2019-04-07T00:00:09.245Z,99.90
2019-04-07T00:02:37.707Z,99.90
2019-04-07T00:05:12.534Z,99.90
2019-04-07T00:07:37.919Z,99.90
2019-04-07T00:10:09.855Z,99.90
2019-04-07T00:12:38.413Z,99.90
2019-04-07T00:15:07.180Z,99.90
2019-04-07T00:17:36.157Z,99.90
2019-04-07T00:20:06.630Z,99.90
2019-04-07T00:22:36.764Z,99.90
2019-04-07T00:25:06.089Z,99.90
2019-04-07T00:27:34.597Z,99.90
2019-04-07T00:30:04.157Z,99.90
2019-04-07T00:32:32.797Z,99.90
2019-04-07T00:35:01.302Z,99.90
2019-04-07T00:37:31.069Z,99.90
2019-04-07T00:39:59.991Z,99.90
2019-04-07T00:42:29.178Z,99.90
2019-04-07T00:44:58.628Z,99.90
2019-04-07T00:47:27.492Z,99.90
2019-04-07T00:49:56.148Z,99.90
2019-04-07T00:52:27.331Z,99.90
2019-04-07T00:54:56.199Z,99.90
2019-04-07T00:57:25.216Z,99.90
2019-04-07T00:59:54.231Z,99.90
2019-04-07T01:02:23.230Z,99.90
2019-04-07T01:04:51.940Z,99.90
2019-04-07T01:07:20.663Z,99.90
2019-04-07T01:09:49.496Z,99.90
2019-04-07T01:12:18.267Z,99.90
2019-04-07T01:14:47.102Z,99.90
2019-04-07T01:17:15.748Z,99.90
2019-04-07T01:19:45.416Z,99.90
2019-04-07T01:22:14.418Z,99.90
2019-04-07T01:24:44.205Z,99.90
2019-04-07T01:27:13.170Z,99.90
2019-04-07T01:29:41.930Z,99.90
2019-04-07T01:32:10.552Z,99.90
2019-04-07T01:34:39.429Z,99.90
2019-04-07T01:37:08.745Z,99.90
2019-04-07T01:39:37.343Z,99.90
2019-04-07T01:42:09.184Z,99.90
2019-04-07T01:44:38.746Z,99.90
2019-04-07T01:47:15.094Z,99.90
2019-04-07T01:49:45.223Z,99.90
2019-04-07T01:52:24.481Z,99.90
2019-04-07T01:55:11.371Z,99.90
2019-04-07T01:57:58.168Z,99.90
2019-04-07T02:00:44.613Z,99.90
2019-04-07T02:03:33.200Z,99.90
2019-04-07T02:06:04.976Z,99.90
2019-04-07T02:08:47.494Z,99.90
2019-04-07T02:11:23.274Z,99.90
2019-04-07T02:14:03.921Z,99.90
2019-04-07T02:16:36.806Z,99.90
2019-04-07T02:19:22.681Z,99.90
2019-04-07T02:22:11.109Z,99.90
2019-04-07T02:27:23.088Z,99.90
2019-04-07T02:29:59.106Z,99.90
2019-04-07T02:32:36.166Z,99.90
2019-04-07T02:35:17.179Z,99.90
2019-04-07T02:37:54.637Z,99.90
2019-04-07T02:40:31.755Z,99.90
2019-04-07T02:43:12.410Z,99.90
2019-04-07T02:45:43.471Z,99.90
2019-04-07T02:48:29.664Z,99.90
2019-04-07T02:51:15.835Z,99.90
2019-04-07T02:53:53.192Z,99.90
2019-04-07T02:56:42.357Z,99.90
2019-04-07T02:59:29.210Z,99.90
2019-04-07T03:01:59.794Z,99.90
2019-04-07T03:04:33.016Z,99.90
2019-04-07T03:07:06.825Z,99.90
2019-04-07T03:09:44.002Z,99.90
2019-04-07T03:12:30.695Z,99.90
2019-04-07T03:15:13.134Z,99.90
2019-04-07T03:17:46.119Z,99.90
2019-04-07T03:20:32.918Z,99.90
2019-04-07T03:23:18.926Z,99.90
2019-04-07T03:26:00.714Z,99.90
2019-04-07T03:28:40.023Z,99.90
2019-04-07T03:31:27.290Z,99.90
2019-04-07T03:33:59.553Z,99.90
2019-04-07T03:37:09.640Z,99.90
2019-04-07T03:39:24.500Z,99.90
2019-04-07T03:42:06.548Z,99.90
2019-04-07T03:44:42.778Z,99.90
2019-04-07T03:47:20.007Z,99.90
2019-04-07T03:50:08.958Z,99.90
2019-04-07T03:53:10.189Z,99.90
2019-04-07T03:55:43.735Z,99.90
2019-04-07T03:58:19.943Z,99.90
2019-04-07T04:01:17.517Z,99.90
2019-04-07T04:03:48.372Z,99.90
2019-04-07T04:06:35.305Z,99.90
2019-04-07T04:09:17.423Z,99.90
2019-04-07T04:11:51.589Z,99.90
2019-04-07T04:14:28.005Z,99.90
2019-04-07T04:16:56.897Z,99.90
2019-04-07T04:19:27.543Z,99.90
2019-04-07T04:21:56.815Z,99.90
2019-04-07T04:24:26.489Z,99.90
2019-04-07T04:26:55.193Z,99.90
2019-04-07T04:29:26.514Z,99.90
2019-04-07T04:31:55.700Z,99.90
2019-04-07T04:34:25.010Z,99.90
2019-04-07T04:36:54.479Z,99.90
2019-04-07T04:39:23.223Z,99.90
2019-04-07T04:41:52.040Z,99.90
2019-04-07T04:44:21.886Z,99.90
2019-04-07T04:46:50.999Z,99.90
2019-04-07T04:49:19.974Z,99.90
2019-04-07T04:51:50.133Z,99.90
2019-04-07T04:54:21.200Z,99.90
2019-04-07T04:56:50.346Z,99.90
2019-04-07T04:59:19.153Z,99.90
2019-04-07T05:01:47.838Z,99.90
2019-04-07T05:04:17.360Z,99.90
2019-04-07T05:06:46.493Z,99.90
2019-04-07T05:09:15.136Z,99.90
2019-04-07T05:11:43.809Z,99.90
2019-04-07T05:14:12.336Z,99.90
2019-04-07T05:16:40.755Z,99.90
2019-04-07T05:19:09.791Z,99.90
2019-04-07T05:21:38.247Z,99.90
2019-04-07T05:24:06.870Z,99.90
2019-04-07T05:26:35.769Z,99.90
2019-04-07T05:29:04.744Z,99.90
2019-04-07T05:31:33.702Z,99.90
2019-04-07T05:34:02.833Z,99.90
2019-04-07T05:36:33.393Z,99.90
2019-04-07T05:39:02.088Z,99.90
2019-04-07T05:41:31.233Z,99.90
2019-04-07T05:43:59.801Z,99.90
2019-04-07T05:46:28.400Z,99.90
2019-04-07T05:48:57.569Z,99.90
2019-04-07T05:51:29.931Z,99.90
2019-04-07T05:53:57.055Z,99.90
2019-04-07T05:56:28.325Z,99.90
2019-04-07T05:58:56.231Z,99.90
2019-04-07T06:01:24.915Z,99.30
2019-04-07T06:03:54.282Z,98.90
2019-04-07T06:06:24.535Z,98.70
2019-04-07T06:08:53.068Z,98.20
2019-04-07T06:11:21.758Z,97.80
2019-04-07T06:13:50.514Z,97.80
2019-04-07T06:16:21.026Z,97.00
2019-04-07T06:18:50.072Z,96.50
2019-04-07T06:21:18.808Z,96.10
2019-04-07T06:23:47.389Z,95.80
2019-04-07T06:26:17.201Z,95.50
2019-04-07T06:28:51.176Z,95.00
2019-04-07T06:31:15.995Z,94.50
2019-04-07T06:33:49.942Z,94.00
2019-04-07T06:36:20.204Z,93.30
2019-04-07T06:38:51.804Z,93.20
2019-04-07T06:41:20.311Z,92.90
2019-04-07T06:43:49.601Z,92.60
2019-04-07T06:46:22.634Z,92.50
2019-04-07T06:49:04.514Z,92.40
2019-04-07T06:51:37.311Z,92.20
2019-04-07T06:54:20.994Z,91.70
2019-04-07T06:56:53.847Z,91.70
2019-04-07T06:59:27.262Z,91.10
2019-04-07T07:02:02.229Z,90.80
2019-04-07T07:04:35.524Z,90.10
2019-04-07T07:07:08.944Z,89.70
2019-04-07T07:09:52.008Z,88.10
2019-04-07T07:12:39.922Z,87.50
2019-04-07T07:15:14.581Z,86.60
2019-04-07T07:17:51.893Z,86.10
2019-04-07T07:20:28.661Z,84.80
2019-04-07T07:23:00.358Z,84.90
2019-04-07T07:25:29.783Z,82.20
2019-04-07T07:27:58.728Z,81.60
2019-04-07T07:30:28.237Z,81.20
2019-04-07T07:32:56.871Z,80.40
2019-04-07T07:35:25.618Z,77.50
2019-04-07T07:37:57.430Z,76.50
2019-04-07T07:40:25.374Z,75.70
2019-04-07T07:42:56.674Z,76.50
2019-04-07T07:45:25.024Z,74.60
2019-04-07T07:47:55.012Z,74.60
2019-04-07T07:50:24.471Z,73.70
2019-04-07T07:52:54.624Z,71.50
2019-04-07T07:55:23.554Z,71.20
2019-04-07T07:57:56.825Z,69.90
2019-04-07T08:00:22.302Z,68.00
2019-04-07T08:02:52.591Z,68.50
2019-04-07T08:05:21.524Z,67.00
2019-04-07T08:07:51.035Z,64.80
2019-04-07T08:10:25.051Z,64.20
2019-04-07T08:12:53.149Z,63.60
2019-04-07T08:15:25.450Z,61.80
2019-04-07T08:17:53.067Z,59.70
2019-04-07T08:20:23.156Z,60.60
2019-04-07T08:22:51.638Z,58.80
2019-04-07T08:25:22.284Z,58.00
2019-04-07T08:27:50.830Z,56.80
2019-04-07T08:30:19.494Z,56.00
2019-04-07T08:32:47.947Z,55.10
2019-04-07T08:35:16.593Z,54.50
2019-04-07T08:37:47.116Z,51.90
2019-04-07T08:40:15.379Z,53.10
2019-04-07T08:42:48.210Z,50.20
2019-04-07T08:45:15.864Z,50.60
2019-04-07T08:47:47.458Z,48.20
2019-04-07T08:50:15.209Z,48.60
2019-04-07T08:52:43.923Z,47.30
2019-04-07T08:55:12.864Z,45.80
2019-04-07T08:57:42.324Z,45.30
2019-04-07T09:00:16.216Z,44.60
2019-04-07T09:02:43.815Z,44.10
2019-04-07T09:05:12.988Z,44.60
2019-04-07T09:07:42.259Z,43.60
2019-04-07T09:10:12.643Z,44.50
2019-04-07T09:12:42.878Z,45.20
2019-04-07T09:15:13.284Z,46.20
2019-04-07T09:17:47.519Z,47.80
2019-04-07T09:20:24.364Z,48.50
2019-04-07T09:22:56.106Z,50.70
2019-04-07T09:25:43.578Z,50.80
2019-04-07T09:28:24.036Z,50.60
2019-04-07T09:31:07.386Z,50.40
2019-04-07T09:33:54.030Z,48.70
2019-04-07T09:36:24.644Z,47.00
2019-04-07T09:39:01.812Z,47.30
2019-04-07T09:41:46.834Z,46.00
2019-04-07T09:44:17.332Z,45.30
2019-04-07T09:46:50.276Z,42.90
2019-04-07T09:49:28.756Z,47.10
2019-04-07T09:52:02.488Z,50.50
2019-04-07T09:54:51.805Z,49.60
2019-04-07T09:57:22.615Z,51.20
2019-04-07T10:00:08.648Z,53.10
2019-04-07T10:02:39.425Z,53.80
2019-04-07T10:05:11.303Z,54.80
2019-04-07T10:07:54.433Z,42.20
2019-04-07T10:10:24.853Z,42.50
2019-04-07T10:13:00.733Z,40.70
2019-04-07T10:15:48.980Z,45.90
2019-04-07T10:18:22.890Z,49.80
2019-04-07T10:20:53.369Z,53.20
2019-04-07T10:23:42.062Z,55.10
2019-04-07T10:26:15.679Z,51.30
2019-04-07T10:28:55.346Z,46.00
2019-04-07T10:31:42.185Z,45.60
2019-04-07T10:34:15.013Z,46.70
2019-04-07T10:37:05.003Z,47.20
2019-04-07T10:39:46.946Z,41.90
2019-04-07T10:42:20.231Z,34.80
2019-04-07T10:45:02.176Z,33.00
2019-04-07T10:47:32.472Z,31.70
2019-04-07T10:50:06.981Z,31.80
2019-04-07T10:52:40.287Z,31.20
2019-04-07T10:55:14.124Z,32.50
2019-04-07T10:57:44.708Z,31.70
2019-04-07T11:00:15.800Z,30.00
2019-04-07T11:02:46.238Z,30.90
2019-04-07T11:05:28.829Z,32.20
2019-04-07T11:08:02.461Z,31.30
2019-04-07T11:10:39.145Z,30.80
2019-04-07T11:13:25.153Z,30.30
2019-04-07T11:16:01.714Z,32.10
2019-04-07T11:18:40.958Z,33.60
2019-04-07T11:21:13.071Z,36.20
2019-04-07T11:24:02.086Z,36.10
2019-04-07T11:26:41.792Z,35.80
2019-04-07T11:29:21.195Z,34.40
2019-04-07T11:32:08.643Z,32.80
2019-04-07T11:34:54.930Z,33.60
2019-04-07T11:37:25.070Z,35.70
2019-04-07T11:40:00.981Z,39.30
2019-04-07T11:42:33.827Z,40.70
2019-04-07T11:45:19.408Z,38.10
2019-04-07T11:48:01.685Z,36.30
2019-04-07T11:50:42.520Z,39.00
2019-04-07T11:53:13.428Z,39.70
2019-04-07T11:55:47.290Z,40.70
2019-04-07T11:58:24.018Z,43.80
2019-04-07T12:01:12.772Z,42.50
2019-04-07T12:03:46.410Z,43.00
2019-04-07T12:06:17.995Z,41.10
2019-04-07T12:08:54.602Z,39.00
2019-04-07T12:11:25.307Z,36.60
2019-04-07T12:13:58.701Z,33.90
2019-04-07T12:16:31.948Z,36.50
2019-04-07T12:19:11.647Z,34.90
2019-04-07T12:21:49.290Z,35.30
2019-04-07T12:24:36.249Z,35.20
2019-04-07T12:27:11.659Z,36.10
2019-04-07T12:29:47.236Z,36.70
2019-04-07T12:32:19.146Z,38.60
2019-04-07T12:34:54.965Z,36.50
2019-04-07T12:37:39.233Z,34.10
2019-04-07T12:40:20.498Z,35.20
2019-04-07T12:42:48.421Z,36.20
2019-04-07T12:45:19.093Z,37.10
2019-04-07T12:48:06.046Z,35.00
2019-04-07T12:50:52.518Z,33.30
2019-04-07T12:53:32.116Z,33.00
2019-04-07T12:56:09.794Z,30.00
2019-04-07T12:58:55.878Z,28.50
2019-04-07T13:01:27.007Z,29.40
2019-04-07T13:03:57.570Z,29.00
2019-04-07T13:06:33.606Z,28.30
2019-04-07T13:09:21.451Z,28.30
2019-04-07T13:11:55.912Z,28.70
2019-04-07T13:14:29.511Z,28.70
2019-04-07T13:17:01.689Z,28.70
2019-04-07T13:19:46.096Z,30.40
2019-04-07T13:22:16.278Z,32.20
2019-04-07T13:24:48.502Z,34.50
2019-04-07T13:27:38.845Z,32.70
2019-04-07T13:30:27.058Z,31.50
2019-04-07T13:33:02.961Z,30.80
2019-04-07T13:35:32.936Z,31.10
2019-04-07T13:38:12.141Z,31.80
2019-04-07T13:40:48.973Z,30.90
2019-04-07T13:43:31.135Z,31.30
2019-04-07T13:46:24.479Z,32.50
2019-04-07T13:48:58.851Z,31.90
2019-04-07T13:51:29.083Z,34.60
2019-04-07T13:54:00.831Z,34.70
2019-04-07T13:56:35.382Z,32.20
2019-04-07T13:59:08.390Z,31.80
2019-04-07T14:01:38.616Z,33.10
2019-04-07T14:04:25.172Z,32.80
2019-04-07T14:06:58.833Z,31.70
2019-04-07T14:09:41.728Z,32.10
2019-04-07T14:12:18.998Z,33.70
2019-04-07T14:15:05.332Z,35.30
2019-04-07T14:17:49.242Z,36.00
2019-04-07T14:20:21.549Z,32.90
2019-04-07T14:22:55.538Z,33.80
2019-04-07T14:25:31.330Z,35.90
2019-04-07T14:28:17.912Z,37.90
2019-04-07T14:30:54.277Z,36.80
2019-04-07T14:33:41.484Z,34.50
2019-04-07T14:36:30.191Z,34.30
2019-04-07T14:39:04.066Z,34.40
2019-04-07T14:41:47.333Z,35.50
2019-04-07T14:44:22.475Z,33.40
2019-04-07T14:46:55.638Z,32.70
2019-04-07T14:49:31.827Z,35.40
2019-04-07T14:52:21.001Z,37.70
2019-04-07T14:55:04.858Z,40.80
2019-04-07T14:57:41.563Z,43.50
2019-04-07T15:00:12.580Z,44.20
2019-04-07T15:02:41.170Z,44.90
2019-04-07T15:05:23.158Z,45.80
2019-04-07T15:07:57.894Z,46.60
2019-04-07T15:10:30.807Z,47.20
2019-04-07T15:13:10.725Z,47.50
2019-04-07T15:15:39.982Z,48.20
2019-04-07T15:18:09.635Z,48.80
2019-04-07T15:20:39.155Z,48.50
2019-04-07T15:23:08.995Z,49.10
2019-04-07T15:25:40.623Z,50.10
2019-04-07T15:28:10.985Z,50.00
2019-04-07T15:30:39.516Z,50.20
2019-04-07T15:33:11.572Z,50.10
2019-04-07T15:35:40.627Z,49.90
2019-04-07T15:38:10.933Z,49.30
2019-04-07T15:40:39.690Z,49.00
2019-04-07T15:43:10.950Z,49.00
2019-04-07T15:45:39.779Z,49.80
2019-04-07T15:48:12.382Z,50.20
2019-04-07T15:50:41.740Z,48.60
2019-04-07T15:53:13.517Z,49.10
2019-04-07T15:55:49.703Z,50.00
2019-04-07T15:58:11.780Z,50.70
2019-04-07T16:00:40.880Z,51.10
2019-04-07T16:03:12.752Z,51.70
2019-04-07T16:05:42.757Z,51.60
2019-04-07T16:08:11.667Z,52.20
2019-04-07T16:10:41.377Z,53.20
2019-04-07T16:13:10.841Z,53.80
2019-04-07T16:15:43.614Z,54.50
2019-04-07T16:18:10.609Z,55.40
2019-04-07T16:20:40.352Z,56.10
2019-04-07T16:23:10.435Z,55.10
2019-04-07T16:25:40.613Z,55.90
2019-04-07T16:28:13.223Z,56.20
2019-04-07T16:30:40.770Z,56.20
2019-04-07T16:33:09.976Z,56.00
2019-04-07T16:35:39.847Z,56.10
2019-04-07T16:38:09.515Z,56.60
2019-04-07T16:40:41.933Z,56.50
2019-04-07T16:43:15.055Z,57.10
2019-04-07T16:45:44.132Z,56.30
2019-04-07T16:48:11.276Z,56.30
2019-04-07T16:50:39.900Z,56.20
2019-04-07T16:53:09.223Z,55.60
2019-04-07T16:55:41.581Z,55.40
2019-04-07T16:58:11.544Z,55.40
2019-04-07T17:00:40.389Z,55.60
2019-04-07T17:03:09.862Z,55.60
2019-04-07T17:05:39.546Z,55.70
2019-04-07T17:08:08.574Z,55.90
2019-04-07T17:10:37.678Z,55.90
2019-04-07T17:13:16.856Z,56.10
2019-04-07T17:15:39.579Z,56.40
2019-04-07T17:18:09.673Z,56.80
2019-04-07T17:20:38.398Z,56.80
2019-04-07T17:23:07.234Z,57.10
2019-04-07T17:25:36.328Z,57.70
2019-04-07T17:28:06.429Z,58.30
2019-04-07T17:30:38.011Z,58.60
2019-04-07T17:33:08.101Z,59.10
2019-04-07T17:35:43.219Z,59.00
2019-04-07T17:38:13.401Z,59.30
2019-04-07T17:40:51.939Z,59.50
2019-04-07T17:43:31.331Z,60.70
2019-04-07T17:46:06.308Z,60.50
2019-04-07T17:48:57.220Z,60.80
2019-04-07T17:51:31.457Z,61.10
2019-04-07T17:54:02.614Z,61.40
2019-04-07T17:56:41.027Z,62.20
2019-04-07T17:59:14.252Z,62.40
2019-04-07T18:02:02.285Z,62.10
2019-04-07T18:04:36.847Z,62.70
2019-04-07T18:07:23.360Z,63.00
2019-04-07T18:09:57.403Z,63.30
2019-04-07T18:12:47.910Z,64.20
2019-04-07T18:18:00.453Z,64.70
2019-04-07T18:20:42.628Z,65.50
2019-04-07T18:23:29.848Z,65.50
2019-04-07T18:26:04.181Z,65.10
2019-04-07T18:28:34.061Z,65.80
2019-04-07T18:31:05.377Z,65.10
2019-04-07T18:33:53.351Z,65.80
2019-04-07T18:36:34.729Z,66.00
2019-04-07T18:39:06.625Z,66.30
2019-04-07T18:41:53.347Z,67.10
2019-04-07T18:44:38.332Z,66.20
2019-04-07T18:47:23.878Z,66.60
2019-04-07T18:50:06.322Z,66.60
2019-04-07T18:52:39.863Z,67.00
2019-04-07T18:55:13.943Z,67.00
2019-04-07T18:57:45.076Z,67.10
2019-04-07T19:00:17.043Z,67.00
2019-04-07T19:02:56.052Z,67.00
2019-04-07T19:05:31.568Z,67.60
2019-04-07T19:08:07.254Z,66.80
2019-04-07T19:13:43.223Z,67.20
2019-04-07T19:16:23.443Z,67.40
2019-04-07T19:19:10.626Z,68.50
2019-04-07T19:21:43.443Z,67.90
2019-04-07T19:24:14.722Z,68.10
2019-04-07T19:26:49.914Z,68.00
2019-04-07T19:29:26.225Z,68.20
2019-04-07T19:32:11.566Z,67.80
2019-04-07T19:34:48.161Z,68.50
2019-04-07T19:37:20.172Z,69.00
2019-04-07T19:40:08.090Z,68.60
2019-04-07T19:42:47.080Z,69.00
2019-04-07T19:45:16.276Z,69.00
2019-04-07T19:47:55.612Z,69.30
2019-04-07T19:50:44.906Z,69.20
2019-04-07T19:53:32.640Z,68.20
2019-04-07T19:56:03.255Z,68.80
2019-04-07T19:58:40.930Z,69.10
2019-04-07T20:01:29.003Z,68.70
2019-04-07T20:04:08.139Z,68.90
2019-04-07T20:06:39.801Z,69.00
2019-04-07T20:09:16.022Z,69.30
2019-04-07T20:11:46.259Z,69.80
2019-04-07T20:14:17.411Z,70.10
2019-04-07T20:16:47.736Z,70.20
2019-04-07T20:19:20.829Z,70.10
2019-04-07T20:21:54.717Z,71.00
2019-04-07T20:24:23.859Z,71.60
2019-04-07T20:26:57.113Z,72.10
2019-04-07T20:29:28.038Z,72.40
2019-04-07T20:32:16.892Z,72.90
2019-04-07T20:34:47.202Z,73.30
2019-04-07T20:37:34.384Z,73.30
2019-04-07T20:40:23.594Z,73.40
2019-04-07T20:43:02.974Z,73.70
2019-04-07T20:45:33.183Z,75.10
2019-04-07T20:48:07.281Z,74.50
2019-04-07T20:50:43.654Z,74.40
2019-04-07T20:53:17.618Z,74.50
2019-04-07T20:55:47.774Z,74.50
2019-04-07T20:58:23.956Z,74.90
2019-04-07T21:01:00.061Z,74.40
2019-04-07T21:03:29.982Z,75.20
2019-04-07T21:06:00.150Z,75.40
2019-04-07T21:08:32.000Z,75.70
2019-04-07T21:11:07.408Z,76.10
2019-04-07T21:13:39.527Z,76.60
2019-04-07T21:16:23.493Z,76.80
2019-04-07T21:19:08.289Z,77.50
2019-04-07T21:21:53.760Z,77.80
2019-04-07T21:24:27.286Z,78.50
2019-04-07T21:27:01.655Z,79.30
2019-04-07T21:29:32.802Z,79.50
2019-04-07T21:32:08.810Z,79.70
2019-04-07T21:34:40.807Z,80.60
2019-04-07T21:37:16.110Z,80.40
2019-04-07T21:39:48.640Z,81.50
2019-04-07T21:42:36.960Z,82.10
2019-04-07T21:45:30.098Z,81.90
2019-04-07T21:48:00.296Z,82.30
2019-04-07T21:50:49.810Z,82.10
2019-04-07T21:53:26.571Z,83.00
2019-04-07T21:56:14.369Z,82.50
2019-04-07T21:59:01.110Z,82.40
2019-04-07T22:01:38.612Z,82.20
2019-04-07T22:04:27.229Z,82.70
2019-04-07T22:07:03.636Z,82.70
2019-04-07T22:09:40.735Z,82.90
2019-04-07T22:12:09.362Z,84.00
2019-04-07T22:14:40.954Z,83.40
2019-04-07T22:17:08.352Z,82.70
2019-04-07T22:19:36.940Z,83.00
2019-04-07T22:22:05.519Z,84.40
2019-04-07T22:24:35.983Z,84.90
2019-04-07T22:27:05.596Z,85.70
2019-04-07T22:29:34.945Z,84.90
2019-04-07T22:32:05.312Z,85.20
2019-04-07T22:34:34.104Z,84.50
2019-04-07T22:37:02.634Z,84.90
2019-04-07T22:39:33.346Z,85.60
2019-04-07T22:42:02.221Z,85.70
2019-04-07T22:44:31.427Z,85.30
2019-04-07T22:47:00.386Z,86.80
2019-04-07T22:49:32.203Z,85.10
2019-04-07T22:52:01.272Z,86.70
2019-04-07T22:54:32.728Z,86.50
2019-04-07T22:57:01.414Z,85.80
2019-04-07T22:59:30.189Z,86.80
2019-04-07T23:01:59.861Z,85.40
2019-04-07T23:04:28.419Z,85.20
2019-04-07T23:06:56.906Z,85.30
2019-04-07T23:09:25.364Z,85.90
2019-04-07T23:11:54.494Z,86.10
2019-04-07T23:14:23.337Z,87.10
2019-04-07T23:16:52.541Z,85.70
2019-04-07T23:19:21.010Z,85.20
2019-04-07T23:21:49.498Z,85.80
2019-04-07T23:24:19.229Z,86.70
2019-04-07T23:26:48.905Z,85.80
2019-04-07T23:29:17.717Z,86.10
2019-04-07T23:31:47.767Z,87.00
2019-04-07T23:34:16.937Z,86.80
2019-04-07T23:36:45.754Z,85.60
2019-04-07T23:39:15.247Z,86.90
2019-04-07T23:41:43.944Z,89.10
2019-04-07T23:44:12.973Z,85.50
2019-04-07T23:46:43.458Z,86.20
2019-04-07T23:49:13.080Z,86.10
2019-04-07T23:51:41.610Z,87.20
2019-04-07T23:54:16.626Z,86.80
2019-04-07T23:56:45.121Z,85.90
2019-04-07T23:59:14.591Z,86.30
